Time;durP1;ratioP1;P1;durP2;ratioP2;P2;SDS_P1;SDS_P2;PMS_P1;PMS_P2;Temp;Humidity;BMP_temperature;BMP_pressure;BME280_temperature;BME280_humidity;BME280_pressure;Samples;Min_cycle;Max_cycle;Signal;HPM_P1;HPM_P2
2022/06/01 00:01:50;;;;;;;;;;;12.30;99.90;;;;;;5075288;28;20450;-72
2022/06/01 00:04:17;;;;;;;;;;;12.30;99.90;;;;;;5074860;28;20016;-72
2022/06/01 00:06:44;;;;;;;;;;;12.20;99.90;;;;;;5074590;28;20019;-72
2022/06/01 00:09:11;;;;;;;;;;;12.10;99.90;;;;;;5074672;28;20015;-71
2022/06/01 00:11:38;;;;;;;;;;;12.00;99.90;;;;;;5074799;28;20011;-72
2022/06/01 00:14:05;;;;;;;;;;;12.00;99.90;;;;;;5074801;28;20019;-73
2022/06/01 00:16:34;;;;;;;;;;;12.00;99.90;;;;;;5075085;28;19971;-72
2022/06/01 00:19:00;;;;;;;;;;;11.90;99.90;;;;;;5074297;28;19931;-73
2022/06/01 00:21:27;;;;;;;;;;;12.00;99.90;;;;;;5073775;28;20022;-72
2022/06/01 00:23:54;;;;;;;;;;;11.90;99.90;;;;;;5074548;28;19947;-72
2022/06/01 00:26:20;;;;;;;;;;;11.90;99.90;;;;;;5074343;28;20011;-72
2022/06/01 00:28:47;;;;;;;;;;;11.90;99.90;;;;;;5074469;28;19925;-72
2022/06/01 00:31:14;;;;;;;;;;;11.90;99.90;;;;;;5074889;28;19924;-73
2022/06/01 00:33:42;;;;;;;;;;;11.80;99.90;;;;;;5074172;28;20458;-73
2022/06/01 00:36:10;;;;;;;;;;;11.70;99.90;;;;;;5074361;28;19932;-73
2022/06/01 00:38:37;;;;;;;;;;;11.60;99.90;;;;;;5074689;28;19924;-72
2022/06/01 00:41:04;;;;;;;;;;;11.60;99.90;;;;;;5074348;28;19928;-72
2022/06/01 00:43:38;;;;;;;;;;;11.60;99.90;;;;;;5074115;28;20034;-74
2022/06/01 00:46:04;;;;;;;;;;;11.60;99.90;;;;;;5074181;28;20305;-72
2022/06/01 00:48:33;;;;;;;;;;;11.50;99.90;;;;;;5073827;28;20019;-73
2022/06/01 00:51:01;;;;;;;;;;;11.40;99.90;;;;;;5074359;28;20019;-73
2022/06/01 00:53:30;;;;;;;;;;;11.40;99.90;;;;;;5073993;28;19974;-73
2022/06/01 00:55:58;;;;;;;;;;;11.40;99.90;;;;;;5073708;28;20392;-72
2022/06/01 00:58:28;;;;;;;;;;;11.40;99.90;;;;;;5073793;28;20447;-73
2022/06/01 01:00:55;;;;;;;;;;;11.30;99.90;;;;;;5073752;28;20394;-74
2022/06/01 01:03:23;;;;;;;;;;;11.20;99.90;;;;;;5073911;28;19931;-73
2022/06/01 01:05:52;;;;;;;;;;;11.10;99.90;;;;;;5073770;28;20015;-74
2022/06/01 01:08:20;;;;;;;;;;;11.20;99.90;;;;;;5073668;28;20291;-73
2022/06/01 01:10:47;;;;;;;;;;;11.20;99.90;;;;;;5073661;28;20030;-74
2022/06/01 01:13:15;;;;;;;;;;;11.20;99.90;;;;;;5073473;28;20018;-73
2022/06/01 01:15:45;;;;;;;;;;;11.20;99.90;;;;;;5073089;28;19932;-74
2022/06/01 01:18:16;;;;;;;;;;;11.20;99.90;;;;;;5073707;28;19925;-74
2022/06/01 01:20:47;;;;;;;;;;;11.20;99.90;;;;;;5073637;28;20334;-74
2022/06/01 01:23:17;;;;;;;;;;;11.20;99.90;;;;;;5073405;28;20372;-74
2022/06/01 01:25:46;;;;;;;;;;;11.20;99.90;;;;;;5072895;28;19924;-74
2022/06/01 01:28:14;;;;;;;;;;;11.10;99.90;;;;;;5073441;28;20028;-73
2022/06/01 01:30:53;;;;;;;;;;;11.00;99.90;;;;;;5072947;28;19928;-74
2022/06/01 01:33:21;;;;;;;;;;;10.90;99.90;;;;;;5073159;28;20015;-73
2022/06/01 01:35:49;;;;;;;;;;;10.80;99.90;;;;;;5072864;28;19924;-74
2022/06/01 01:38:19;;;;;;;;;;;10.70;99.90;;;;;;5073147;28;19975;-74
2022/06/01 01:40:58;;;;;;;;;;;10.70;99.90;;;;;;5073076;28;20015;-74
2022/06/01 01:43:25;;;;;;;;;;;10.80;99.90;;;;;;5073076;28;20019;-75
2022/06/01 01:45:52;;;;;;;;;;;10.80;99.90;;;;;;5072870;28;19931;-74
2022/06/01 01:48:19;;;;;;;;;;;10.70;99.90;;;;;;5072942;28;20023;-73
2022/06/01 01:50:45;;;;;;;;;;;10.70;99.90;;;;;;5072608;28;20023;-75
2022/06/01 01:53:12;;;;;;;;;;;10.70;99.90;;;;;;5072825;28;20010;-74
2022/06/01 01:55:44;;;;;;;;;;;10.60;99.90;;;;;;5072757;28;19986;-73
2022/06/01 01:58:17;;;;;;;;;;;10.60;99.90;;;;;;5072711;28;20089;-73
2022/06/01 02:00:45;;;;;;;;;;;10.60;99.90;;;;;;5072523;28;20443;-74
2022/06/01 02:03:16;;;;;;;;;;;10.60;99.90;;;;;;5072476;28;20011;-74
2022/06/01 02:08:30;;;;;;;;;;;10.50;99.90;;;;;;5072416;28;20303;-75
2022/06/01 02:13:47;;;;;;;;;;;10.50;99.90;;;;;;5072454;28;19927;-74
2022/06/01 02:16:14;;;;;;;;;;;10.40;99.90;;;;;;5072286;28;20022;-72
2022/06/01 02:18:48;;;;;;;;;;;10.40;99.90;;;;;;5072290;28;19924;-72
2022/06/01 02:21:16;;;;;;;;;;;10.40;99.90;;;;;;5072305;28;19991;-72
2022/06/01 02:23:43;;;;;;;;;;;10.50;99.90;;;;;;5072354;28;20027;-72
2022/06/01 02:26:10;;;;;;;;;;;10.50;99.90;;;;;;5072005;28;19925;-73
2022/06/01 02:28:38;;;;;;;;;;;10.50;99.90;;;;;;5072361;28;20315;-72
2022/06/01 02:31:07;;;;;;;;;;;10.30;99.90;;;;;;5072026;28;19924;-72
2022/06/01 02:33:35;;;;;;;;;;;10.40;99.90;;;;;;5072233;28;19971;-72
2022/06/01 02:36:03;;;;;;;;;;;10.30;99.90;;;;;;5071929;28;19989;-72
2022/06/01 02:38:32;;;;;;;;;;;10.30;99.90;;;;;;5072081;28;20007;-72
2022/06/01 02:41:00;;;;;;;;;;;10.30;99.90;;;;;;5072029;28;20019;-72
2022/06/01 02:43:27;;;;;;;;;;;10.30;99.90;;;;;;5072022;28;19976;-72
2022/06/01 02:45:54;;;;;;;;;;;10.20;99.90;;;;;;5071422;28;19924;-72
2022/06/01 02:48:22;;;;;;;;;;;10.10;99.90;;;;;;5072005;28;19930;-72
2022/06/01 02:50:49;;;;;;;;;;;10.10;99.90;;;;;;5071915;28;19925;-72
2022/06/01 02:53:16;;;;;;;;;;;10.10;99.90;;;;;;5071857;28;19971;-72
2022/06/01 02:55:42;;;;;;;;;;;10.10;99.90;;;;;;5071869;28;20030;-72
2022/06/01 02:58:09;;;;;;;;;;;10.10;99.90;;;;;;5071844;28;19924;-73
2022/06/01 03:00:37;;;;;;;;;;;10.00;99.90;;;;;;5071697;28;20041;-72
2022/06/01 03:03:05;;;;;;;;;;;9.90;99.90;;;;;;5071989;28;19931;-72
2022/06/01 03:05:34;;;;;;;;;;;9.90;99.90;;;;;;5071574;28;20030;-73
2022/06/01 03:08:01;;;;;;;;;;;9.80;99.90;;;;;;5071979;28;19934;-72
2022/06/01 03:10:28;;;;;;;;;;;9.90;99.90;;;;;;5071499;28;19924;-75
2022/06/01 03:12:55;;;;;;;;;;;10.10;99.90;;;;;;5071702;28;20455;-72
2022/06/01 03:15:23;;;;;;;;;;;9.90;99.90;;;;;;5071674;28;19928;-74
2022/06/01 03:17:49;;;;;;;;;;;9.80;99.90;;;;;;5071621;28;19960;-72
2022/06/01 03:20:19;;;;;;;;;;;9.90;99.90;;;;;;5071494;28;20023;-74
2022/06/01 03:22:48;;;;;;;;;;;9.90;99.90;;;;;;5071731;28;19931;-72
2022/06/01 03:25:16;;;;;;;;;;;10.00;99.90;;;;;;5071726;28;19931;-72
2022/06/01 03:27:43;;;;;;;;;;;10.00;99.90;;;;;;5071495;28;20024;-72
2022/06/01 03:30:11;;;;;;;;;;;10.00;99.90;;;;;;5071417;28;19924;-72
2022/06/01 03:32:38;;;;;;;;;;;10.10;99.90;;;;;;5072114;28;19968;-72
2022/06/01 03:35:05;;;;;;;;;;;10.10;99.90;;;;;;5071318;28;19978;-72
2022/06/01 03:37:32;;;;;;;;;;;10.10;99.90;;;;;;5071907;28;19931;-72
2022/06/01 03:40:00;;;;;;;;;;;10.20;99.90;;;;;;5071546;28;20015;-72
2022/06/01 03:42:27;;;;;;;;;;;10.10;99.90;;;;;;5071397;28;20422;-72
2022/06/01 03:47:38;;;;;;;;;;;10.20;99.90;;;;;;5071535;28;20461;-72
2022/06/01 03:50:05;;;;;;;;;;;10.20;99.90;;;;;;5071484;28;19932;-72
2022/06/01 03:52:31;;;;;;;;;;;10.20;99.90;;;;;;5071335;28;20019;-71
2022/06/01 03:55:00;;;;;;;;;;;10.20;99.90;;;;;;5071207;28;19931;-72
2022/06/01 03:57:26;;;;;;;;;;;10.20;99.90;;;;;;5072880;28;20021;-72
2022/06/01 03:59:53;;;;;;;;;;;10.20;99.90;;;;;;5074930;28;20297;-72
2022/06/01 04:02:20;;;;;;;;;;;10.10;99.90;;;;;;5075063;28;20299;-72
2022/06/01 04:04:46;;;;;;;;;;;10.00;99.90;;;;;;5074956;28;20011;-72
2022/06/01 04:07:13;;;;;;;;;;;10.00;99.90;;;;;;5074878;28;20023;-72
2022/06/01 04:09:40;;;;;;;;;;;10.00;99.90;;;;;;5074620;28;19931;-72
2022/06/01 04:12:08;;;;;;;;;;;10.10;99.90;;;;;;5074664;28;19925;-72
2022/06/01 04:14:35;;;;;;;;;;;10.20;99.90;;;;;;5074579;28;20018;-72
2022/06/01 04:17:02;;;;;;;;;;;10.20;99.90;;;;;;5074541;28;20472;-72
2022/06/01 04:19:28;;;;;;;;;;;10.20;99.90;;;;;;5074573;28;19924;-72
2022/06/01 04:21:55;;;;;;;;;;;10.20;99.90;;;;;;5074618;28;20019;-73
2022/06/01 04:24:25;;;;;;;;;;;10.30;99.90;;;;;;5074513;28;20014;-72
2022/06/01 04:26:51;;;;;;;;;;;10.40;99.90;;;;;;5074306;28;20378;-74
2022/06/01 04:29:19;;;;;;;;;;;10.50;99.90;;;;;;5074280;28;20015;-72
2022/06/01 04:31:46;;;;;;;;;;;10.50;99.90;;;;;;5074341;28;20015;-72
2022/06/01 04:34:13;;;;;;;;;;;10.60;99.90;;;;;;5074357;28;19925;-72
2022/06/01 04:36:40;;;;;;;;;;;10.70;99.90;;;;;;5074085;28;19925;-74
2022/06/01 04:39:07;;;;;;;;;;;10.70;99.90;;;;;;5074336;28;20356;-72
2022/06/01 04:41:34;;;;;;;;;;;10.80;99.90;;;;;;5074347;28;19929;-72
2022/06/01 04:44:01;;;;;;;;;;;10.90;99.90;;;;;;5074242;28;19970;-72
2022/06/01 04:46:29;;;;;;;;;;;11.00;99.90;;;;;;5074095;28;20015;-72
2022/06/01 04:48:56;;;;;;;;;;;11.00;99.90;;;;;;5074077;28;20019;-72
2022/06/01 04:51:23;;;;;;;;;;;11.10;99.90;;;;;;5073945;28;19924;-72
2022/06/01 04:53:49;;;;;;;;;;;11.10;99.90;;;;;;5074051;28;20103;-72
2022/06/01 04:56:16;;;;;;;;;;;11.20;99.90;;;;;;5073721;28;20043;-72
2022/06/01 04:58:43;;;;;;;;;;;11.20;99.90;;;;;;5073690;28;20019;-72
2022/06/01 05:01:09;;;;;;;;;;;11.30;99.90;;;;;;5073805;28;19985;-72
2022/06/01 05:03:37;;;;;;;;;;;11.30;99.90;;;;;;5073883;28;20060;-72
2022/06/01 05:06:04;;;;;;;;;;;11.50;99.90;;;;;;5073605;28;20026;-72
2022/06/01 05:08:31;;;;;;;;;;;11.50;99.90;;;;;;5073301;28;20015;-74
2022/06/01 05:10:57;;;;;;;;;;;11.60;99.90;;;;;;5073391;28;20504;-72
2022/06/01 05:13:24;;;;;;;;;;;11.70;99.90;;;;;;5073562;28;19964;-72
2022/06/01 05:15:52;;;;;;;;;;;11.80;99.90;;;;;;5073535;28;20391;-72
2022/06/01 05:18:19;;;;;;;;;;;11.90;99.90;;;;;;5073814;28;19987;-72
2022/06/01 05:20:47;;;;;;;;;;;12.00;99.90;;;;;;5073704;28;20007;-74
2022/06/01 05:23:16;;;;;;;;;;;12.00;99.90;;;;;;5073339;28;20139;-73
2022/06/01 05:25:43;;;;;;;;;;;12.10;99.90;;;;;;5073694;28;19935;-73
2022/06/01 05:28:10;;;;;;;;;;;12.20;99.90;;;;;;5073381;28;20390;-72
2022/06/01 05:30:36;;;;;;;;;;;12.30;99.90;;;;;;5073156;28;19931;-73
2022/06/01 05:33:03;;;;;;;;;;;12.50;99.90;;;;;;5073290;28;20011;-73
2022/06/01 05:38:07;;;;;;;;;;;12.50;99.90;;;;;;5013032;22;19925;-72
2022/06/01 05:40:33;;;;;;;;;;;12.50;99.90;;;;;;5013140;28;20024;-71
2022/06/01 05:43:00;;;;;;;;;;;12.60;99.90;;;;;;5013169;28;20013;-71
2022/06/01 05:45:30;;;;;;;;;;;12.70;99.90;;;;;;5012959;28;20024;-71
2022/06/01 05:47:57;;;;;;;;;;;12.80;99.90;;;;;;5013194;28;20012;-71
2022/06/01 05:50:24;;;;;;;;;;;12.90;99.90;;;;;;5012838;28;20028;-71
2022/06/01 05:52:50;;;;;;;;;;;13.00;99.90;;;;;;5013071;28;20008;-71
2022/06/01 05:55:18;;;;;;;;;;;13.20;99.90;;;;;;5012637;28;20015;-71
2022/06/01 05:57:45;;;;;;;;;;;13.30;99.90;;;;;;5012934;28;20008;-72
2022/06/01 06:00:12;;;;;;;;;;;13.60;99.90;;;;;;5012788;28;19961;-71
2022/06/01 06:02:39;;;;;;;;;;;13.80;99.90;;;;;;5012819;28;20282;-72
2022/06/01 06:06:11;;;;;;;;;;;13.80;99.90;;;;;;5012430;28;20457;-72
2022/06/01 06:07:54;;;;;;;;;;;14.00;99.90;;;;;;5012558;28;19932;-71
2022/06/01 06:10:23;;;;;;;;;;;14.20;99.90;;;;;;5012681;28;20464;-71
2022/06/01 06:12:49;;;;;;;;;;;14.20;99.90;;;;;;5012633;28;20453;-71
2022/06/01 06:15:16;;;;;;;;;;;14.50;99.90;;;;;;5012261;28;20016;-72
2022/06/01 06:17:43;;;;;;;;;;;14.60;99.90;;;;;;5012701;28;19956;-71
2022/06/01 06:20:10;;;;;;;;;;;14.60;99.90;;;;;;5011937;28;19965;-71
2022/06/01 06:22:37;;;;;;;;;;;14.70;99.90;;;;;;5012650;28;20469;-72
2022/06/01 06:25:04;;;;;;;;;;;14.90;99.90;;;;;;5012118;28;20021;-72
2022/06/01 06:27:32;;;;;;;;;;;14.80;99.90;;;;;;5012482;28;19930;-72
2022/06/01 06:29:59;;;;;;;;;;;15.00;99.90;;;;;;5012704;28;20363;-73
2022/06/01 06:32:28;;;;;;;;;;;15.00;99.90;;;;;;5012328;28;20024;-72
2022/06/01 06:34:54;;;;;;;;;;;15.00;99.90;;;;;;5012022;28;19925;-72
2022/06/01 06:37:21;;;;;;;;;;;15.10;99.90;;;;;;5012201;28;20016;-72
2022/06/01 06:39:50;;;;;;;;;;;15.20;99.90;;;;;;5011737;28;20448;-72
2022/06/01 06:42:16;;;;;;;;;;;15.40;99.90;;;;;;5012276;28;20042;-72
2022/06/01 06:44:45;;;;;;;;;;;15.40;99.90;;;;;;5011890;28;20019;-72
2022/06/01 06:47:11;;;;;;;;;;;15.60;99.90;;;;;;5012287;28;20087;-72
2022/06/01 06:49:38;;;;;;;;;;;15.80;99.90;;;;;;5012175;28;19967;-72
2022/06/01 06:52:05;;;;;;;;;;;15.80;99.90;;;;;;5012129;28;19932;-72
2022/06/01 06:54:33;;;;;;;;;;;15.50;99.90;;;;;;5012040;28;20376;-72
2022/06/01 06:57:00;;;;;;;;;;;15.40;99.90;;;;;;5011705;28;19925;-72
2022/06/01 06:59:27;;;;;;;;;;;15.70;99.90;;;;;;5011946;28;20012;-72
2022/06/01 07:01:55;;;;;;;;;;;15.80;99.90;;;;;;5012154;28;19997;-73
2022/06/01 07:04:22;;;;;;;;;;;16.00;99.90;;;;;;5012068;28;20020;-74
2022/06/01 07:06:48;;;;;;;;;;;16.40;99.90;;;;;;5011731;28;20012;-72
2022/06/01 07:09:15;;;;;;;;;;;16.40;99.90;;;;;;5012085;28;20412;-72
2022/06/01 07:11:42;;;;;;;;;;;16.20;99.90;;;;;;5011793;28;19976;-72
2022/06/01 07:14:08;;;;;;;;;;;16.50;99.90;;;;;;5012027;28;19926;-73
2022/06/01 07:16:35;;;;;;;;;;;16.70;99.90;;;;;;5011911;28;20364;-72
2022/06/01 07:19:05;;;;;;;;;;;17.10;99.90;;;;;;5011911;28;19929;-72
2022/06/01 07:21:32;;;;;;;;;;;17.30;99.90;;;;;;5011932;28;20016;-72
2022/06/01 07:23:59;;;;;;;;;;;17.10;99.90;;;;;;5011768;28;20405;-72
2022/06/01 07:26:29;;;;;;;;;;;16.50;99.90;;;;;;5011391;28;19932;-72
2022/06/01 07:28:56;;;;;;;;;;;16.50;99.90;;;;;;5011756;28;20017;-72
2022/06/01 07:31:23;;;;;;;;;;;16.60;99.90;;;;;;5013430;28;20028;-72
2022/06/01 07:33:51;;;;;;;;;;;16.70;99.90;;;;;;5015978;28;19925;-72
2022/06/01 07:36:19;;;;;;;;;;;16.80;99.90;;;;;;5015035;28;20012;-73
2022/06/01 07:44:18;;;;;;;;;;;17.40;99.90;;;;;;5015537;28;19928;-72
2022/06/01 07:46:44;;;;;;;;;;;17.50;99.90;;;;;;5015051;28;19972;-72
2022/06/01 07:49:11;;;;;;;;;;;17.70;99.90;;;;;;5015170;28;19964;-73
2022/06/01 07:51:39;;;;;;;;;;;17.90;99.90;;;;;;5015472;28;20012;-72
2022/06/01 07:54:07;;;;;;;;;;;18.10;99.90;;;;;;5015598;28;19926;-73
2022/06/01 07:56:34;;;;;;;;;;;18.30;99.90;;;;;;5014792;28;20096;-73
2022/06/01 07:59:01;;;;;;;;;;;18.70;99.90;;;;;;5015034;28;19972;-72
2022/06/01 08:01:28;;;;;;;;;;;18.70;99.90;;;;;;5015105;28;19977;-72
2022/06/01 08:03:56;;;;;;;;;;;18.90;99.90;;;;;;5014898;28;19969;-71
2022/06/01 08:06:23;;;;;;;;;;;19.30;99.90;;;;;;5014799;28;20004;-71
2022/06/01 08:08:51;;;;;;;;;;;20.10;99.90;;;;;;5015027;28;20016;-70
2022/06/01 08:11:17;;;;;;;;;;;19.90;99.90;;;;;;5015001;28;20028;-72
2022/06/01 08:13:43;;;;;;;;;;;20.50;99.70;;;;;;5014947;28;20471;-70
2022/06/01 08:16:10;;;;;;;;;;;19.90;99.30;;;;;;5014824;28;20013;-70
2022/06/01 08:18:37;;;;;;;;;;;20.10;99.40;;;;;;5014768;28;19926;-70
2022/06/01 08:21:04;;;;;;;;;;;20.30;98.70;;;;;;5014703;28;19972;-71
2022/06/01 08:23:32;;;;;;;;;;;20.10;98.40;;;;;;5014722;28;19932;-72
2022/06/01 08:26:01;;;;;;;;;;;20.70;98.00;;;;;;5014502;28;20020;-68
2022/06/01 08:28:27;;;;;;;;;;;20.90;94.10;;;;;;5014579;28;19980;-68
2022/06/01 08:30:54;;;;;;;;;;;20.80;93.40;;;;;;5014892;28;19973;-68
2022/06/01 08:33:23;;;;;;;;;;;19.90;92.40;;;;;;5014497;28;20016;-68
2022/06/01 08:35:52;;;;;;;;;;;20.00;93.00;;;;;;5013863;28;20408;-68
2022/06/01 08:38:19;;;;;;;;;;;20.80;91.80;;;;;;5014494;28;19925;-70
2022/06/01 08:40:50;;;;;;;;;;;20.90;91.90;;;;;;5014364;28;20433;-70
2022/06/01 08:43:19;;;;;;;;;;;20.60;92.00;;;;;;5013377;28;19932;-70
2022/06/01 08:45:49;;;;;;;;;;;20.80;91.70;;;;;;5013897;28;20051;-70
2022/06/01 08:48:17;;;;;;;;;;;21.00;91.20;;;;;;5014315;28;20461;-70
2022/06/01 08:50:44;;;;;;;;;;;20.80;91.00;;;;;;5014054;28;20005;-70
2022/06/01 08:53:11;;;;;;;;;;;21.10;90.10;;;;;;5013975;28;20024;-70
2022/06/01 08:55:43;;;;;;;;;;;20.90;90.20;;;;;;5013857;28;19980;-70
2022/06/01 08:58:12;;;;;;;;;;;22.10;89.70;;;;;;5014145;28;20040;-70
2022/06/01 09:00:55;;;;;;;;;;;21.60;86.70;;;;;;5013984;28;19965;-71
2022/06/01 09:03:27;;;;;;;;;;;22.60;84.80;;;;;;5013986;28;20016;-70
2022/06/01 09:05:57;;;;;;;;;;;22.70;81.50;;;;;;5013677;28;20024;-71
2022/06/01 09:08:28;;;;;;;;;;;22.10;83.30;;;;;;5013968;28;19925;-70
2022/06/01 09:10:58;;;;;;;;;;;21.50;84.30;;;;;;5013787;28;20020;-68
2022/06/01 09:13:27;;;;;;;;;;;23.00;89.10;;;;;;5013802;28;20454;-69
2022/06/01 09:15:57;;;;;;;;;;;23.80;87.80;;;;;;5013582;28;20374;-69
2022/06/01 09:18:25;;;;;;;;;;;23.30;89.40;;;;;;5014047;28;19933;-73
2022/06/01 09:23:36;;;;;;;;;;;22.40;90.20;;;;;;5013667;28;19929;-71
2022/06/01 09:26:03;;;;;;;;;;;22.40;90.30;;;;;;5013520;28;19937;-72
2022/06/01 09:28:30;;;;;;;;;;;22.20;90.60;;;;;;5013632;28;19926;-71
2022/06/01 09:31:00;;;;;;;;;;;21.90;91.00;;;;;;5013494;28;19925;-73
2022/06/01 09:33:29;;;;;;;;;;;21.70;91.30;;;;;;5013219;28;19925;-74
2022/06/01 09:36:00;;;;;;;;;;;21.50;92.00;;;;;;5012895;28;19975;-73
2022/06/01 09:38:35;;;;;;;;;;;21.90;91.50;;;;;;5013349;28;19953;-73
2022/06/01 09:41:02;;;;;;;;;;;22.00;90.90;;;;;;5013636;28;19925;-72
2022/06/01 09:43:29;;;;;;;;;;;21.90;90.90;;;;;;5013212;28;19980;-71
2022/06/01 09:45:56;;;;;;;;;;;22.00;90.60;;;;;;5012828;28;19971;-73
2022/06/01 09:48:27;;;;;;;;;;;21.40;89.10;;;;;;5013226;28;20020;-71
2022/06/01 09:51:06;;;;;;;;;;;22.10;88.60;;;;;;5013265;28;20456;-71
2022/06/01 09:53:36;;;;;;;;;;;22.10;86.90;;;;;;5012751;28;19930;-70
2022/06/01 09:56:04;;;;;;;;;;;23.40;85.00;;;;;;5011877;28;19930;-71
2022/06/01 10:07:03;;;;;;;;;;;21.40;80.10;;;;;;5008896;28;19932;-72
2022/06/01 10:09:31;;;;;;;;;;;22.30;79.90;;;;;;5012795;28;19948;-70
2022/06/01 10:11:58;;;;;;;;;;;23.30;77.60;;;;;;5012500;28;19925;-70
2022/06/01 10:14:27;;;;;;;;;;;24.60;74.90;;;;;;5012537;28;20021;-70
2022/06/01 10:16:58;;;;;;;;;;;24.50;73.40;;;;;;5012886;28;20020;-70
2022/06/01 10:19:28;;;;;;;;;;;24.30;73.90;;;;;;5012379;28;20368;-72
2022/06/01 10:21:58;;;;;;;;;;;24.20;75.40;;;;;;5012970;28;19929;-71
2022/06/01 10:24:27;;;;;;;;;;;23.20;76.40;;;;;;5012308;28;19973;-71
2022/06/01 10:26:58;;;;;;;;;;;23.00;77.20;;;;;;5012176;28;19932;-70
2022/06/01 10:29:27;;;;;;;;;;;21.90;79.30;;;;;;5012572;28;19926;-73
2022/06/01 10:31:55;;;;;;;;;;;21.40;80.90;;;;;;5012709;28;19930;-71
2022/06/01 10:34:25;;;;;;;;;;;22.30;79.70;;;;;;5012209;28;19925;-71
2022/06/01 10:36:55;;;;;;;;;;;24.10;76.50;;;;;;5011915;28;20012;-70
2022/06/01 10:39:24;;;;;;;;;;;24.10;75.50;;;;;;5012105;28;19976;-70
2022/06/01 10:41:54;;;;;;;;;;;22.40;77.20;;;;;;5012215;28;20330;-70
2022/06/01 10:44:24;;;;;;;;;;;22.60;76.50;;;;;;5012080;28;20024;-70
2022/06/01 10:46:54;;;;;;;;;;;23.90;75.80;;;;;;5011750;28;20301;-71
2022/06/01 10:49:28;;;;;;;;;;;24.60;74.30;;;;;;5011917;28;19925;-70
2022/06/01 10:52:00;;;;;;;;;;;24.90;74.50;;;;;;5012039;28;19926;-70
2022/06/01 10:54:32;;;;;;;;;;;24.80;73.10;;;;;;5012022;28;19932;-70
2022/06/01 10:56:59;;;;;;;;;;;24.90;71.90;;;;;;5011820;28;19926;-70
2022/06/01 10:59:27;;;;;;;;;;;23.40;73.00;;;;;;5011940;28;20004;-71
2022/06/01 11:02:03;;;;;;;;;;;22.80;73.00;;;;;;5012023;28;20007;-70
2022/06/01 11:04:50;;;;;;;;;;;22.00;76.80;;;;;;5012095;28;19926;-73
2022/06/01 11:07:38;;;;;;;;;;;23.30;73.90;;;;;;5015151;28;20021;-73
2022/06/01 11:10:12;;;;;;;;;;;23.80;74.10;;;;;;4991382;28;20456;-72
2022/06/01 11:12:46;;;;;;;;;;;24.10;73.10;;;;;;5016240;28;20016;-70
2022/06/01 11:15:19;;;;;;;;;;;24.60;74.90;;;;;;5015750;28;20492;-70
2022/06/01 11:17:50;;;;;;;;;;;25.20;72.70;;;;;;5015749;28;20016;-70
2022/06/01 11:20:33;;;;;;;;;;;24.00;75.60;;;;;;5015698;28;20016;-70
2022/06/01 11:23:12;;;;;;;;;;;23.60;75.80;;;;;;5015880;28;20472;-71
2022/06/01 11:25:45;;;;;;;;;;;22.80;78.30;;;;;;5015605;28;20012;-70
2022/06/01 11:28:22;;;;;;;;;;;22.80;78.10;;;;;;5015687;28;20023;-70
2022/06/01 11:30:54;;;;;;;;;;;23.60;77.50;;;;;;5016013;28;20012;-71
2022/06/01 11:33:26;;;;;;;;;;;24.80;76.10;;;;;;5015597;28;20017;-70
2022/06/01 11:35:59;;;;;;;;;;;24.90;75.50;;;;;;5014827;28;19979;-71
2022/06/01 11:38:27;;;;;;;;;;;25.50;73.40;;;;;;5015461;28;20020;-70
2022/06/01 11:40:58;;;;;;;;;;;25.90;71.80;;;;;;5015449;28;20473;-70
2022/06/01 11:43:28;;;;;;;;;;;25.60;72.90;;;;;;5015563;28;20016;-71
2022/06/01 11:45:55;;;;;;;;;;;25.50;72.40;;;;;;5015266;28;19926;-71
2022/06/01 11:48:24;;;;;;;;;;;24.80;73.20;;;;;;5015256;28;19930;-71
2022/06/01 11:50:56;;;;;;;;;;;24.40;74.00;;;;;;5015467;28;19969;-70
2022/06/01 11:53:24;;;;;;;;;;;25.00;73.70;;;;;;5015296;28;20016;-71
2022/06/01 11:55:50;;;;;;;;;;;25.40;73.10;;;;;;5015215;28;20016;-71
2022/06/01 11:58:32;;;;;;;;;;;24.60;71.90;;;;;;5015173;28;20008;-71
2022/06/01 12:01:11;;;;;;;;;;;25.20;73.20;;;;;;5014891;28;20386;-71
2022/06/01 12:03:40;;;;;;;;;;;24.10;72.90;;;;;;5015157;28;20016;-70
2022/06/01 12:06:09;;;;;;;;;;;23.90;73.10;;;;;;5015036;28;19932;-71
2022/06/01 12:08:38;;;;;;;;;;;23.80;75.40;;;;;;5014922;28;20008;-70
2022/06/01 12:11:06;;;;;;;;;;;23.00;74.70;;;;;;5014879;28;19926;-72
2022/06/01 12:13:51;;;;;;;;;;;23.40;74.90;;;;;;5014776;28;20297;-71
2022/06/01 12:16:23;;;;;;;;;;;22.80;73.70;;;;;;5014627;28;19929;-71
2022/06/01 12:19:09;;;;;;;;;;;24.20;73.90;;;;;;5013840;28;20317;-71
2022/06/01 12:21:53;;;;;;;;;;;24.30;72.90;;;;;;5014925;28;19972;-72
2022/06/01 12:30:09;;;;;;;;;;;24.60;73.70;;;;;;5014441;28;19937;-68
2022/06/01 12:32:54;;;;;;;;;;;25.90;70.30;;;;;;5014762;28;19933;-68
2022/06/01 12:35:22;;;;;;;;;;;26.40;70.80;;;;;;5014441;28;20084;-71
2022/06/01 12:37:51;;;;;;;;;;;25.60;69.30;;;;;;5014302;28;20016;-69
2022/06/01 12:40:21;;;;;;;;;;;27.20;67.50;;;;;;5014258;28;20374;-69
2022/06/01 12:42:52;;;;;;;;;;;26.40;67.20;;;;;;5014793;28;19971;-69
2022/06/01 12:45:21;;;;;;;;;;;26.10;65.90;;;;;;5014389;28;19997;-69
2022/06/01 12:47:51;;;;;;;;;;;24.90;67.40;;;;;;5014264;28;20024;-69
2022/06/01 12:50:20;;;;;;;;;;;25.80;67.60;;;;;;5014374;28;20008;-69
2022/06/01 12:52:48;;;;;;;;;;;25.30;68.80;;;;;;5013927;28;20036;-69
2022/06/01 12:55:19;;;;;;;;;;;27.50;66.40;;;;;;5013817;28;19973;-69
2022/06/01 12:57:49;;;;;;;;;;;26.80;67.10;;;;;;5014309;28;19925;-69
2022/06/01 13:00:20;;;;;;;;;;;26.40;65.30;;;;;;5013761;28;20459;-69
2022/06/01 13:02:47;;;;;;;;;;;27.30;66.30;;;;;;5014086;28;20416;-69
2022/06/01 13:05:15;;;;;;;;;;;26.40;65.00;;;;;;5013635;28;20021;-69
2022/06/01 13:07:43;;;;;;;;;;;25.90;66.60;;;;;;5013913;28;19929;-69
2022/06/01 13:10:12;;;;;;;;;;;25.80;67.40;;;;;;5013692;28;19926;-69
2022/06/01 13:12:39;;;;;;;;;;;26.50;64.10;;;;;;5014039;28;20350;-69
2022/06/01 13:15:16;;;;;;;;;;;28.90;62.60;;;;;;5013298;28;19968;-69
2022/06/01 13:17:50;;;;;;;;;;;27.70;61.80;;;;;;5013771;28;20270;-69
2022/06/01 13:20:17;;;;;;;;;;;26.50;64.00;;;;;;5014007;28;20012;-69
2022/06/01 13:22:47;;;;;;;;;;;24.30;66.60;;;;;;5013801;28;19929;-69
2022/06/01 13:25:20;;;;;;;;;;;23.80;67.70;;;;;;5013543;28;19979;-69
2022/06/01 13:27:47;;;;;;;;;;;24.10;68.00;;;;;;5013531;28;20353;-69
2022/06/01 13:30:16;;;;;;;;;;;23.30;69.30;;;;;;5013011;28;20366;-69
2022/06/01 13:32:44;;;;;;;;;;;23.20;71.10;;;;;;5013620;28;19960;-69
2022/06/01 13:35:22;;;;;;;;;;;24.20;69.70;;;;;;5013050;28;20020;-69
2022/06/01 13:37:51;;;;;;;;;;;24.90;67.50;;;;;;5013247;28;20456;-69
2022/06/01 13:40:24;;;;;;;;;;;23.30;68.70;;;;;;5013116;28;19980;-69
2022/06/01 13:42:52;;;;;;;;;;;23.60;68.70;;;;;;5013466;28;19965;-69
2022/06/01 13:45:19;;;;;;;;;;;25.50;66.60;;;;;;5012909;28;20120;-69
2022/06/01 13:47:52;;;;;;;;;;;25.80;65.40;;;;;;5013114;28;20028;-69
2022/06/01 13:50:23;;;;;;;;;;;25.90;65.50;;;;;;5013503;28;19952;-69
2022/06/01 13:53:01;;;;;;;;;;;26.30;67.30;;;;;;5013210;28;20028;-69
2022/06/01 13:55:30;;;;;;;;;;;25.30;67.10;;;;;;5012761;28;20484;-69
2022/06/01 13:57:58;;;;;;;;;;;25.00;67.90;;;;;;5013282;28;19925;-69
2022/06/01 14:00:31;;;;;;;;;;;24.80;66.40;;;;;;5012974;28;19976;-69
2022/06/01 14:03:04;;;;;;;;;;;25.20;67.50;;;;;;5012916;28;19976;-69
2022/06/01 14:05:34;;;;;;;;;;;24.90;67.50;;;;;;5012702;28;20012;-71
2022/06/01 14:08:04;;;;;;;;;;;25.90;67.30;;;;;;5013255;28;19947;-69
2022/06/01 14:10:33;;;;;;;;;;;25.50;66.60;;;;;;5012747;28;20024;-69
2022/06/01 14:13:00;;;;;;;;;;;25.00;67.80;;;;;;5012779;28;20035;-69
2022/06/01 14:15:27;;;;;;;;;;;23.60;69.40;;;;;;5012470;28;20012;-69
2022/06/01 14:17:53;;;;;;;;;;;23.50;71.30;;;;;;5012689;28;20004;-69
2022/06/01 14:20:20;;;;;;;;;;;24.30;69.40;;;;;;5012300;28;20020;-69
2022/06/01 14:22:47;;;;;;;;;;;24.60;67.50;;;;;;5012539;28;19932;-69
2022/06/01 14:30:43;;;;;;;;;;;23.40;69.20;;;;;;5012312;28;19936;-69
2022/06/01 14:33:11;;;;;;;;;;;24.80;67.60;;;;;;5012237;28;19976;-69
2022/06/01 14:35:38;;;;;;;;;;;24.10;68.50;;;;;;5012288;28;19926;-69
2022/06/01 14:38:04;;;;;;;;;;;24.60;69.20;;;;;;5012418;28;19925;-69
2022/06/01 14:40:32;;;;;;;;;;;24.80;68.70;;;;;;5011686;28;19984;-69
2022/06/01 14:43:02;;;;;;;;;;;25.60;67.90;;;;;;5012448;28;19980;-69
2022/06/01 14:45:29;;;;;;;;;;;26.40;67.00;;;;;;5012229;28;20453;-69
2022/06/01 14:47:56;;;;;;;;;;;25.60;67.60;;;;;;5012234;28;19925;-69
2022/06/01 14:50:23;;;;;;;;;;;25.10;68.10;;;;;;5012106;28;19926;-71
2022/06/01 14:52:49;;;;;;;;;;;24.40;69.70;;;;;;5012051;28;20012;-72
2022/06/01 14:55:16;;;;;;;;;;;24.50;71.80;;;;;;5012281;28;20021;-71
2022/06/01 14:57:43;;;;;;;;;;;25.70;67.10;;;;;;5012234;28;20378;-71
2022/06/01 15:00:12;;;;;;;;;;;25.40;69.00;;;;;;5011961;28;19926;-71
2022/06/01 15:02:42;;;;;;;;;;;24.80;70.20;;;;;;5012005;28;19971;-71
2022/06/01 15:05:10;;;;;;;;;;;25.40;67.50;;;;;;5012072;28;20017;-71